Terminal Aerodrome Forecast
Issued by NWS Sterling, VA

Home | Current Version | Previous Version | Text Only | Print | Product List | Glossary On
Versions: 1 2 3 4 5 6 7 8 9 10 11 12 13 14 15 16 17 18 19 20 21 22 23 24 25 26 27 28 29 30
364
FTUS41 KLWX 241121
TAFIAD
TAF
KIAD 241121Z 2412/2518 31008KT P6SM FEW200
     FM241500 31009G17KT P6SM FEW080 FEW200
     FM250000 25004KT P6SM FEW070=

USA.gov is the U.S. government's official web portal to all federal, state and local government web resources and services.